sensor_id;sensor_type;location;lat;lon;timestamp;P1;durP1;ratioP1;P2;durP2;ratioP2
67757;SDS011;54562;47.620;18.786;2023-11-22T00:01:06;83.90;;;12.00;;
67757;SDS011;54562;47.620;18.786;2023-11-22T00:04:15;86.90;;;11.90;;
67757;SDS011;54562;47.620;18.786;2023-11-22T00:07:22;90.30;;;11.80;;
67757;SDS011;54562;47.620;18.786;2023-11-22T00:10:28;33.80;;;11.00;;
67757;SDS011;54562;47.620;18.786;2023-11-22T00:13:35;64.40;;;10.80;;
67757;SDS011;54562;47.620;18.786;2023-11-22T00:16:42;49.50;;;11.60;;
67757;SDS011;54562;47.620;18.786;2023-11-22T00:19:48;56.90;;;12.30;;
67757;SDS011;54562;47.620;18.786;2023-11-22T00:22:55;51.10;;;11.40;;
67757;SDS011;54562;47.620;18.786;2023-11-22T00:26:02;45.30;;;12.30;;
67757;SDS011;54562;47.620;18.786;2023-11-22T00:29:09;39.70;;;11.50;;
67757;SDS011;54562;47.620;18.786;2023-11-22T00:32:16;35.70;;;12.40;;
67757;SDS011;54562;47.620;18.786;2023-11-22T00:35:23;41.70;;;12.10;;
67757;SDS011;54562;47.620;18.786;2023-11-22T00:38:29;47.80;;;12.30;;
67757;SDS011;54562;47.620;18.786;2023-11-22T00:41:39;93.00;;;13.40;;
67757;SDS011;54562;47.620;18.786;2023-11-22T00:44:45;23.00;;;11.10;;
67757;SDS011;54562;47.620;18.786;2023-11-22T00:47:51;72.90;;;12.80;;
67757;SDS011;54562;47.620;18.786;2023-11-22T00:50:57;58.10;;;13.10;;
67757;SDS011;54562;47.620;18.786;2023-11-22T00:54:10;47.50;;;12.60;;
67757;SDS011;54562;47.620;18.786;2023-11-22T00:57:18;53.30;;;11.90;;
67757;SDS011;54562;47.620;18.786;2023-11-22T01:00:24;21.00;;;12.20;;
67757;SDS011;54562;47.620;18.786;2023-11-22T01:03:31;49.20;;;12.00;;
67757;SDS011;54562;47.620;18.786;2023-11-22T01:06:38;45.10;;;11.30;;
67757;SDS011;54562;47.620;18.786;2023-11-22T01:09:45;49.90;;;11.70;;
67757;SDS011;54562;47.620;18.786;2023-11-22T01:12:51;57.60;;;12.10;;
67757;SDS011;54562;47.620;18.786;2023-11-22T01:15:57;55.00;;;11.00;;
67757;SDS011;54562;47.620;18.786;2023-11-22T01:19:04;46.70;;;10.90;;
67757;SDS011;54562;47.620;18.786;2023-11-22T01:22:12;34.40;;;11.10;;
67757;SDS011;54562;47.620;18.786;2023-11-22T01:25:19;35.30;;;10.80;;
67757;SDS011;54562;47.620;18.786;2023-11-22T01:28:26;33.50;;;10.40;;
67757;SDS011;54562;47.620;18.786;2023-11-22T01:31:32;37.70;;;10.20;;
67757;SDS011;54562;47.620;18.786;2023-11-22T01:34:38;24.50;;;10.00;;
67757;SDS011;54562;47.620;18.786;2023-11-22T01:37:46;31.10;;;9.90;;
67757;SDS011;54562;47.620;18.786;2023-11-22T01:40:52;23.90;;;9.00;;
67757;SDS011;54562;47.620;18.786;2023-11-22T01:43:59;40.00;;;10.00;;
67757;SDS011;54562;47.620;18.786;2023-11-22T01:47:06;27.70;;;8.90;;
67757;SDS011;54562;47.620;18.786;2023-11-22T01:50:15;25.20;;;9.80;;
67757;SDS011;54562;47.620;18.786;2023-11-22T01:53:23;20.80;;;9.50;;
67757;SDS011;54562;47.620;18.786;2023-11-22T01:56:30;27.50;;;9.60;;
67757;SDS011;54562;47.620;18.786;2023-11-22T01:59:37;26.40;;;9.20;;
67757;SDS011;54562;47.620;18.786;2023-11-22T02:02:44;20.10;;;8.80;;
67757;SDS011;54562;47.620;18.786;2023-11-22T02:05:50;40.20;;;9.70;;
67757;SDS011;54562;47.620;18.786;2023-11-22T02:08:58;33.50;;;9.60;;
67757;SDS011;54562;47.620;18.786;2023-11-22T02:12:06;54.30;;;9.50;;
67757;SDS011;54562;47.620;18.786;2023-11-22T02:15:13;40.70;;;9.50;;
67757;SDS011;54562;47.620;18.786;2023-11-22T02:18:19;40.00;;;9.10;;
67757;SDS011;54562;47.620;18.786;2023-11-22T02:21:26;48.80;;;8.90;;
67757;SDS011;54562;47.620;18.786;2023-11-22T02:24:32;39.80;;;9.50;;
67757;SDS011;54562;47.620;18.786;2023-11-22T02:27:38;44.50;;;9.20;;
67757;SDS011;54562;47.620;18.786;2023-11-22T02:30:45;47.10;;;9.30;;
67757;SDS011;54562;47.620;18.786;2023-11-22T02:33:52;48.00;;;8.70;;
67757;SDS011;54562;47.620;18.786;2023-11-22T02:36:58;65.00;;;9.70;;
67757;SDS011;54562;47.620;18.786;2023-11-22T02:40:09;67.00;;;9.80;;
67757;SDS011;54562;47.620;18.786;2023-11-22T02:43:22;46.10;;;9.00;;
67757;SDS011;54562;47.620;18.786;2023-11-22T02:46:28;32.00;;;9.10;;
67757;SDS011;54562;47.620;18.786;2023-11-22T02:49:36;73.30;;;9.40;;
67757;SDS011;54562;47.620;18.786;2023-11-22T02:52:43;54.10;;;10.00;;
67757;SDS011;54562;47.620;18.786;2023-11-22T02:55:51;52.70;;;11.00;;
67757;SDS011;54562;47.620;18.786;2023-11-22T02:58:59;42.50;;;9.30;;
67757;SDS011;54562;47.620;18.786;2023-11-22T03:02:05;49.20;;;9.60;;
67757;SDS011;54562;47.620;18.786;2023-11-22T03:05:15;46.60;;;10.40;;
67757;SDS011;54562;47.620;18.786;2023-11-22T03:08:22;36.20;;;8.50;;
67757;SDS011;54562;47.620;18.786;2023-11-22T03:11:28;38.70;;;9.60;;
67757;SDS011;54562;47.620;18.786;2023-11-22T03:14:35;47.50;;;9.70;;
67757;SDS011;54562;47.620;18.786;2023-11-22T03:17:43;53.20;;;9.90;;
67757;SDS011;54562;47.620;18.786;2023-11-22T03:20:51;37.50;;;9.70;;
67757;SDS011;54562;47.620;18.786;2023-11-22T03:23:58;80.50;;;10.60;;
67757;SDS011;54562;47.620;18.786;2023-11-22T03:27:06;71.80;;;9.90;;
67757;SDS011;54562;47.620;18.786;2023-11-22T03:30:13;85.60;;;10.20;;
67757;SDS011;54562;47.620;18.786;2023-11-22T03:33:20;64.10;;;9.80;;
67757;SDS011;54562;47.620;18.786;2023-11-22T03:36:26;97.20;;;11.30;;
67757;SDS011;54562;47.620;18.786;2023-11-22T03:39:32;71.80;;;9.80;;
67757;SDS011;54562;47.620;18.786;2023-11-22T03:42:39;93.80;;;10.80;;
67757;SDS011;54562;47.620;18.786;2023-11-22T03:45:45;57.50;;;9.50;;
67757;SDS011;54562;47.620;18.786;2023-11-22T03:48:52;79.80;;;11.40;;
67757;SDS011;54562;47.620;18.786;2023-11-22T03:51:58;56.50;;;9.30;;
67757;SDS011;54562;47.620;18.786;2023-11-22T03:55:06;59.30;;;9.20;;
67757;SDS011;54562;47.620;18.786;2023-11-22T03:58:14;56.80;;;8.70;;
67757;SDS011;54562;47.620;18.786;2023-11-22T04:01:21;59.20;;;9.50;;
67757;SDS011;54562;47.620;18.786;2023-11-22T04:04:27;68.00;;;9.00;;
67757;SDS011;54562;47.620;18.786;2023-11-22T04:07:34;50.10;;;8.60;;
67757;SDS011;54562;47.620;18.786;2023-11-22T04:10:42;65.40;;;8.60;;
67757;SDS011;54562;47.620;18.786;2023-11-22T04:13:48;51.10;;;8.60;;
67757;SDS011;54562;47.620;18.786;2023-11-22T04:16:56;64.20;;;8.50;;
67757;SDS011;54562;47.620;18.786;2023-11-22T04:20:03;40.60;;;7.50;;
67757;SDS011;54562;47.620;18.786;2023-11-22T04:26:18;46.60;;;7.50;;
67757;SDS011;54562;47.620;18.786;2023-11-22T04:29:25;34.10;;;5.90;;
67757;SDS011;54562;47.620;18.786;2023-11-22T04:32:31;52.00;;;6.90;;
67757;SDS011;54562;47.620;18.786;2023-11-22T04:35:39;34.70;;;6.10;;
67757;SDS011;54562;47.620;18.786;2023-11-22T04:38:45;33.40;;;6.20;;
67757;SDS011;54562;47.620;18.786;2023-11-22T04:41:52;49.80;;;6.80;;
67757;SDS011;54562;47.620;18.786;2023-11-22T04:44:58;37.00;;;7.10;;
67757;SDS011;54562;47.620;18.786;2023-11-22T04:48:05;25.10;;;5.90;;
67757;SDS011;54562;47.620;18.786;2023-11-22T04:51:11;50.30;;;6.80;;
67757;SDS011;54562;47.620;18.786;2023-11-22T04:54:19;53.80;;;6.70;;
67757;SDS011;54562;47.620;18.786;2023-11-22T04:57:25;41.30;;;6.60;;
67757;SDS011;54562;47.620;18.786;2023-11-22T05:00:32;36.20;;;6.00;;
67757;SDS011;54562;47.620;18.786;2023-11-22T05:03:39;41.80;;;6.70;;
67757;SDS011;54562;47.620;18.786;2023-11-22T05:06:46;37.80;;;6.50;;
67757;SDS011;54562;47.620;18.786;2023-11-22T05:09:52;24.10;;;5.30;;
67757;SDS011;54562;47.620;18.786;2023-11-22T05:12:59;35.70;;;6.00;;
67757;SDS011;54562;47.620;18.786;2023-11-22T05:16:07;22.10;;;5.30;;
67757;SDS011;54562;47.620;18.786;2023-11-22T05:19:15;28.00;;;6.00;;
67757;SDS011;54562;47.620;18.786;2023-11-22T05:22:22;32.00;;;6.10;;
67757;SDS011;54562;47.620;18.786;2023-11-22T05:25:28;27.60;;;5.80;;
67757;SDS011;54562;47.620;18.786;2023-11-22T05:28:35;18.80;;;5.90;;
67757;SDS011;54562;47.620;18.786;2023-11-22T05:31:41;24.10;;;5.80;;
67757;SDS011;54562;47.620;18.786;2023-11-22T05:34:47;27.50;;;5.70;;
67757;SDS011;54562;47.620;18.786;2023-11-22T05:37:54;21.10;;;5.90;;
67757;SDS011;54562;47.620;18.786;2023-11-22T05:41:00;18.60;;;6.30;;
67757;SDS011;54562;47.620;18.786;2023-11-22T05:44:07;20.10;;;6.90;;
67757;SDS011;54562;47.620;18.786;2023-11-22T05:47:13;13.80;;;6.20;;
67757;SDS011;54562;47.620;18.786;2023-11-22T05:50:21;20.70;;;6.20;;
67757;SDS011;54562;47.620;18.786;2023-11-22T05:53:28;16.60;;;5.30;;
67757;SDS011;54562;47.620;18.786;2023-11-22T05:56:34;26.40;;;5.80;;
67757;SDS011;54562;47.620;18.786;2023-11-22T05:59:42;29.60;;;5.60;;
67757;SDS011;54562;47.620;18.786;2023-11-22T06:02:49;24.80;;;5.30;;
67757;SDS011;54562;47.620;18.786;2023-11-22T06:05:57;17.10;;;5.60;;
67757;SDS011;54562;47.620;18.786;2023-11-22T06:09:04;31.40;;;6.20;;
67757;SDS011;54562;47.620;18.786;2023-11-22T06:12:11;15.60;;;5.70;;
67757;SDS011;54562;47.620;18.786;2023-11-22T06:15:17;31.10;;;6.30;;
67757;SDS011;54562;47.620;18.786;2023-11-22T06:18:25;42.60;;;7.70;;
67757;SDS011;54562;47.620;18.786;2023-11-22T06:21:33;35.50;;;5.60;;
67757;SDS011;54562;47.620;18.786;2023-11-22T06:24:41;32.40;;;5.50;;
67757;SDS011;54562;47.620;18.786;2023-11-22T06:27:57;25.10;;;5.60;;
67757;SDS011;54562;47.620;18.786;2023-11-22T06:31:05;39.90;;;6.30;;
67757;SDS011;54562;47.620;18.786;2023-11-22T06:34:11;42.60;;;6.40;;
67757;SDS011;54562;47.620;18.786;2023-11-22T06:37:17;35.50;;;6.30;;
67757;SDS011;54562;47.620;18.786;2023-11-22T06:40:24;43.10;;;6.10;;
67757;SDS011;54562;47.620;18.786;2023-11-22T06:43:32;45.20;;;6.80;;
67757;SDS011;54562;47.620;18.786;2023-11-22T06:46:39;52.80;;;7.80;;
67757;SDS011;54562;47.620;18.786;2023-11-22T06:49:46;33.40;;;5.00;;
67757;SDS011;54562;47.620;18.786;2023-11-22T06:52:52;49.90;;;6.40;;
67757;SDS011;54562;47.620;18.786;2023-11-22T06:55:59;38.60;;;5.00;;
67757;SDS011;54562;47.620;18.786;2023-11-22T06:59:08;23.60;;;5.20;;
67757;SDS011;54562;47.620;18.786;2023-11-22T07:02:14;28.60;;;5.10;;
67757;SDS011;54562;47.620;18.786;2023-11-22T07:05:21;72.80;;;6.30;;
67757;SDS011;54562;47.620;18.786;2023-11-22T07:08:27;20.50;;;5.00;;
67757;SDS011;54562;47.620;18.786;2023-11-22T07:11:34;27.80;;;5.10;;
67757;SDS011;54562;47.620;18.786;2023-11-22T07:14:40;25.20;;;4.90;;
67757;SDS011;54562;47.620;18.786;2023-11-22T07:17:47;34.40;;;5.90;;
67757;SDS011;54562;47.620;18.786;2023-11-22T07:20:53;40.80;;;5.70;;
67757;SDS011;54562;47.620;18.786;2023-11-22T07:24:00;50.00;;;6.50;;
67757;SDS011;54562;47.620;18.786;2023-11-22T07:27:06;45.50;;;5.50;;
67757;SDS011;54562;47.620;18.786;2023-11-22T07:30:15;44.10;;;6.20;;
67757;SDS011;54562;47.620;18.786;2023-11-22T07:33:23;23.90;;;5.10;;
67757;SDS011;54562;47.620;18.786;2023-11-22T07:36:30;39.30;;;5.90;;
67757;SDS011;54562;47.620;18.786;2023-11-22T07:39:41;48.80;;;6.10;;
67757;SDS011;54562;47.620;18.786;2023-11-22T07:42:48;41.90;;;6.90;;
67757;SDS011;54562;47.620;18.786;2023-11-22T07:45:54;33.70;;;5.90;;
67757;SDS011;54562;47.620;18.786;2023-11-22T07:49:02;40.20;;;6.30;;
67757;SDS011;54562;47.620;18.786;2023-11-22T07:52:09;35.80;;;5.70;;
67757;SDS011;54562;47.620;18.786;2023-11-22T07:55:17;32.20;;;5.50;;
67757;SDS011;54562;47.620;18.786;2023-11-22T07:58:23;31.90;;;6.00;;
67757;SDS011;54562;47.620;18.786;2023-11-22T08:01:29;37.40;;;6.50;;
67757;SDS011;54562;47.620;18.786;2023-11-22T08:04:37;51.50;;;7.00;;
67757;SDS011;54562;47.620;18.786;2023-11-22T08:07:44;48.40;;;6.00;;
67757;SDS011;54562;47.620;18.786;2023-11-22T08:10:53;43.50;;;6.50;;
67757;SDS011;54562;47.620;18.786;2023-11-22T08:14:00;28.60;;;5.60;;
67757;SDS011;54562;47.620;18.786;2023-11-22T08:17:06;27.00;;;5.70;;
67757;SDS011;54562;47.620;18.786;2023-11-22T08:20:15;38.20;;;6.50;;
67757;SDS011;54562;47.620;18.786;2023-11-22T08:23:22;28.50;;;5.80;;
67757;SDS011;54562;47.620;18.786;2023-11-22T08:26:30;48.00;;;6.50;;
67757;SDS011;54562;47.620;18.786;2023-11-22T08:29:37;36.90;;;6.00;;
67757;SDS011;54562;47.620;18.786;2023-11-22T08:32:43;48.60;;;6.10;;
67757;SDS011;54562;47.620;18.786;2023-11-22T08:35:57;24.30;;;5.60;;
67757;SDS011;54562;47.620;18.786;2023-11-22T08:39:04;40.60;;;6.00;;
67757;SDS011;54562;47.620;18.786;2023-11-22T08:42:11;26.50;;;6.00;;
67757;SDS011;54562;47.620;18.786;2023-11-22T08:45:19;24.30;;;6.50;;
67757;SDS011;54562;47.620;18.786;2023-11-22T08:48:26;33.30;;;6.20;;
67757;SDS011;54562;47.620;18.786;2023-11-22T08:51:33;30.80;;;6.20;;
67757;SDS011;54562;47.620;18.786;2023-11-22T08:54:39;26.40;;;7.10;;
67757;SDS011;54562;47.620;18.786;2023-11-22T08:57:47;29.80;;;6.30;;
67757;SDS011;54562;47.620;18.786;2023-11-22T09:00:54;37.40;;;6.40;;
67757;SDS011;54562;47.620;18.786;2023-11-22T09:04:01;51.80;;;7.40;;
67757;SDS011;54562;47.620;18.786;2023-11-22T09:07:07;30.50;;;6.00;;
67757;SDS011;54562;47.620;18.786;2023-11-22T09:13:25;32.80;;;6.60;;
67757;SDS011;54562;47.620;18.786;2023-11-22T09:16:36;33.80;;;6.80;;
67757;SDS011;54562;47.620;18.786;2023-11-22T09:22:48;34.50;;;6.60;;
67757;SDS011;54562;47.620;18.786;2023-11-22T09:25:55;40.70;;;6.80;;
67757;SDS011;54562;47.620;18.786;2023-11-22T09:29:03;30.90;;;6.30;;
67757;SDS011;54562;47.620;18.786;2023-11-22T09:32:11;44.10;;;7.30;;
67757;SDS011;54562;47.620;18.786;2023-11-22T09:35:18;29.40;;;7.20;;
67757;SDS011;54562;47.620;18.786;2023-11-22T09:38:25;26.40;;;7.00;;
67757;SDS011;54562;47.620;18.786;2023-11-22T09:41:31;26.40;;;6.60;;
67757;SDS011;54562;47.620;18.786;2023-11-22T09:44:37;35.60;;;7.40;;
67757;SDS011;54562;47.620;18.786;2023-11-22T09:47:44;45.50;;;8.20;;
67757;SDS011;54562;47.620;18.786;2023-11-22T09:50:54;32.20;;;7.60;;
67757;SDS011;54562;47.620;18.786;2023-11-22T09:54:07;46.10;;;7.50;;
67757;SDS011;54562;47.620;18.786;2023-11-22T09:57:17;41.80;;;8.00;;
67757;SDS011;54562;47.620;18.786;2023-11-22T10:00:25;72.10;;;9.40;;
67757;SDS011;54562;47.620;18.786;2023-11-22T10:03:33;46.60;;;9.40;;
67757;SDS011;54562;47.620;18.786;2023-11-22T10:06:39;37.30;;;8.80;;
67757;SDS011;54562;47.620;18.786;2023-11-22T10:12:55;42.40;;;7.60;;
67757;SDS011;54562;47.620;18.786;2023-11-22T10:16:08;54.30;;;9.30;;
67757;SDS011;54562;47.620;18.786;2023-11-22T10:19:15;43.60;;;9.10;;
67757;SDS011;54562;47.620;18.786;2023-11-22T10:22:24;47.90;;;9.10;;
67757;SDS011;54562;47.620;18.786;2023-11-22T10:25:30;63.10;;;10.10;;
67757;SDS011;54562;47.620;18.786;2023-11-22T10:28:36;51.20;;;9.50;;
67757;SDS011;54562;47.620;18.786;2023-11-22T10:31:45;54.60;;;9.70;;
67757;SDS011;54562;47.620;18.786;2023-11-22T10:34:52;44.30;;;9.40;;
67757;SDS011;54562;47.620;18.786;2023-11-22T10:38:00;62.40;;;10.10;;
67757;SDS011;54562;47.620;18.786;2023-11-22T10:41:09;67.50;;;10.80;;
67757;SDS011;54562;47.620;18.786;2023-11-22T10:44:17;63.10;;;11.50;;
67757;SDS011;54562;47.620;18.786;2023-11-22T10:47:26;70.90;;;11.10;;
67757;SDS011;54562;47.620;18.786;2023-11-22T10:50:33;68.40;;;11.80;;
67757;SDS011;54562;47.620;18.786;2023-11-22T10:53:43;67.90;;;12.50;;
67757;SDS011;54562;47.620;18.786;2023-11-22T10:56:54;73.40;;;13.40;;
67757;SDS011;54562;47.620;18.786;2023-11-22T11:00:02;76.10;;;13.10;;
67757;SDS011;54562;47.620;18.786;2023-11-22T11:03:14;76.30;;;14.60;;
67757;SDS011;54562;47.620;18.786;2023-11-22T11:06:23;59.30;;;15.30;;
67757;SDS011;54562;47.620;18.786;2023-11-22T11:09:32;54.40;;;12.40;;
67757;SDS011;54562;47.620;18.786;2023-11-22T11:12:39;71.70;;;14.90;;
67757;SDS011;54562;47.620;18.786;2023-11-22T11:15:46;78.40;;;17.00;;
67757;SDS011;54562;47.620;18.786;2023-11-22T11:18:53;66.90;;;17.00;;
67757;SDS011;54562;47.620;18.786;2023-11-22T11:22:01;49.30;;;17.20;;
67757;SDS011;54562;47.620;18.786;2023-11-22T11:25:08;50.00;;;16.70;;
67757;SDS011;54562;47.620;18.786;2023-11-22T11:28:15;78.20;;;18.40;;
67757;SDS011;54562;47.620;18.786;2023-11-22T11:31:22;74.70;;;18.30;;
67757;SDS011;54562;47.620;18.786;2023-11-22T11:34:29;75.10;;;17.60;;
67757;SDS011;54562;47.620;18.786;2023-11-22T11:37:35;57.60;;;19.00;;
67757;SDS011;54562;47.620;18.786;2023-11-22T11:40:43;52.20;;;18.50;;
67757;SDS011;54562;47.620;18.786;2023-11-22T11:43:51;38.40;;;17.70;;
67757;SDS011;54562;47.620;18.786;2023-11-22T11:46:59;39.60;;;18.20;;
67757;SDS011;54562;47.620;18.786;2023-11-22T11:50:15;47.00;;;17.20;;
67757;SDS011;54562;47.620;18.786;2023-11-22T11:53:22;36.70;;;17.00;;
67757;SDS011;54562;47.620;18.786;2023-11-22T11:56:29;38.00;;;18.50;;
67757;SDS011;54562;47.620;18.786;2023-11-22T11:59:36;49.70;;;19.70;;
67757;SDS011;54562;47.620;18.786;2023-11-22T12:02:45;43.00;;;20.10;;
67757;SDS011;54562;47.620;18.786;2023-11-22T12:05:51;33.00;;;18.40;;
67757;SDS011;54562;47.620;18.786;2023-11-22T12:08:58;36.70;;;19.00;;
67757;SDS011;54562;47.620;18.786;2023-11-22T12:12:05;36.30;;;18.90;;
67757;SDS011;54562;47.620;18.786;2023-11-22T12:15:12;38.90;;;19.80;;
67757;SDS011;54562;47.620;18.786;2023-11-22T12:18:18;40.40;;;20.10;;
67757;SDS011;54562;47.620;18.786;2023-11-22T12:21:25;36.40;;;19.10;;
67757;SDS011;54562;47.620;18.786;2023-11-22T12:24:32;36.80;;;20.00;;
67757;SDS011;54562;47.620;18.786;2023-11-22T12:27:41;32.10;;;17.40;;
67757;SDS011;54562;47.620;18.786;2023-11-22T12:30:49;31.90;;;17.70;;
67757;SDS011;54562;47.620;18.786;2023-11-22T12:33:56;33.20;;;16.80;;
67757;SDS011;54562;47.620;18.786;2023-11-22T12:37:03;31.90;;;17.60;;
67757;SDS011;54562;47.620;18.786;2023-11-22T12:40:13;32.00;;;17.50;;
67757;SDS011;54562;47.620;18.786;2023-11-22T12:43:20;32.20;;;17.80;;
67757;SDS011;54562;47.620;18.786;2023-11-22T12:46:46;28.20;;;17.30;;
67757;SDS011;54562;47.620;18.786;2023-11-22T12:50:01;31.90;;;16.90;;
67757;SDS011;54562;47.620;18.786;2023-11-22T12:53:09;32.60;;;18.10;;
67757;SDS011;54562;47.620;18.786;2023-11-22T12:56:16;31.40;;;17.80;;
67757;SDS011;54562;47.620;18.786;2023-11-22T12:59:22;30.40;;;15.90;;
67757;SDS011;54562;47.620;18.786;2023-11-22T13:02:31;29.00;;;16.40;;
67757;SDS011;54562;47.620;18.786;2023-11-22T13:05:48;29.30;;;16.80;;
67757;SDS011;54562;47.620;18.786;2023-11-22T13:08:55;26.90;;;15.50;;
67757;SDS011;54562;47.620;18.786;2023-11-22T13:12:02;25.90;;;14.60;;
67757;SDS011;54562;47.620;18.786;2023-11-22T13:15:10;22.10;;;13.70;;
67757;SDS011;54562;47.620;18.786;2023-11-22T13:18:17;22.90;;;13.90;;
67757;SDS011;54562;47.620;18.786;2023-11-22T13:21:24;24.60;;;14.70;;
67757;SDS011;54562;47.620;18.786;2023-11-22T13:24:31;22.30;;;13.60;;
67757;SDS011;54562;47.620;18.786;2023-11-22T13:27:37;26.10;;;14.90;;
67757;SDS011;54562;47.620;18.786;2023-11-22T13:30:43;25.70;;;15.10;;
67757;SDS011;54562;47.620;18.786;2023-11-22T13:33:53;25.00;;;14.40;;
67757;SDS011;54562;47.620;18.786;2023-11-22T13:37:00;22.70;;;13.20;;
67757;SDS011;54562;47.620;18.786;2023-11-22T13:40:09;16.10;;;9.90;;
67757;SDS011;54562;47.620;18.786;2023-11-22T13:43:19;12.80;;;8.00;;
67757;SDS011;54562;47.620;18.786;2023-11-22T13:46:26;11.60;;;6.70;;
67757;SDS011;54562;47.620;18.786;2023-11-22T13:49:32;11.20;;;6.10;;
67757;SDS011;54562;47.620;18.786;2023-11-22T13:52:39;10.10;;;6.30;;
67757;SDS011;54562;47.620;18.786;2023-11-22T13:55:46;10.60;;;6.30;;
67757;SDS011;54562;47.620;18.786;2023-11-22T13:58:54;11.10;;;6.20;;
67757;SDS011;54562;47.620;18.786;2023-11-22T14:02:02;9.70;;;6.00;;
67757;SDS011;54562;47.620;18.786;2023-11-22T14:05:10;10.80;;;6.20;;
67757;SDS011;54562;47.620;18.786;2023-11-22T14:08:16;9.70;;;5.70;;
67757;SDS011;54562;47.620;18.786;2023-11-22T14:11:23;11.40;;;5.20;;
67757;SDS011;54562;47.620;18.786;2023-11-22T14:14:29;10.00;;;5.80;;
67757;SDS011;54562;47.620;18.786;2023-11-22T14:17:36;9.90;;;5.70;;
67757;SDS011;54562;47.620;18.786;2023-11-22T14:20:46;10.00;;;6.00;;
67757;SDS011;54562;47.620;18.786;2023-11-22T14:23:53;11.60;;;6.30;;
67757;SDS011;54562;47.620;18.786;2023-11-22T14:26:59;10.90;;;5.70;;
67757;SDS011;54562;47.620;18.786;2023-11-22T14:30:08;10.10;;;5.70;;
67757;SDS011;54562;47.620;18.786;2023-11-22T14:33:17;11.30;;;5.70;;
67757;SDS011;54562;47.620;18.786;2023-11-22T14:36:24;11.10;;;5.80;;
67757;SDS011;54562;47.620;18.786;2023-11-22T14:39:31;10.50;;;6.30;;
67757;SDS011;54562;47.620;18.786;2023-11-22T14:42:37;12.30;;;6.40;;
67757;SDS011;54562;47.620;18.786;2023-11-22T14:45:44;11.70;;;6.50;;
67757;SDS011;54562;47.620;18.786;2023-11-22T14:48:50;9.70;;;5.80;;
67757;SDS011;54562;47.620;18.786;2023-11-22T14:51:56;13.30;;;6.90;;
67757;SDS011;54562;47.620;18.786;2023-11-22T14:55:03;11.20;;;6.70;;
67757;SDS011;54562;47.620;18.786;2023-11-22T14:58:12;10.90;;;6.10;;
67757;SDS011;54562;47.620;18.786;2023-11-22T15:01:20;10.50;;;6.10;;
67757;SDS011;54562;47.620;18.786;2023-11-22T15:04:28;12.40;;;7.30;;
67757;SDS011;54562;47.620;18.786;2023-11-22T15:07:35;12.00;;;6.90;;
67757;SDS011;54562;47.620;18.786;2023-11-22T15:10:44;13.60;;;6.60;;
67757;SDS011;54562;47.620;18.786;2023-11-22T15:13:50;13.00;;;6.40;;
67757;SDS011;54562;47.620;18.786;2023-11-22T15:16:57;13.90;;;7.50;;
67757;SDS011;54562;47.620;18.786;2023-11-22T15:20:04;15.00;;;8.00;;
67757;SDS011;54562;47.620;18.786;2023-11-22T15:23:15;13.40;;;7.20;;
67757;SDS011;54562;47.620;18.786;2023-11-22T15:26:23;11.40;;;6.30;;
67757;SDS011;54562;47.620;18.786;2023-11-22T15:29:30;13.60;;;6.90;;
67757;SDS011;54562;47.620;18.786;2023-11-22T15:32:37;14.30;;;8.60;;
67757;SDS011;54562;47.620;18.786;2023-11-22T15:35:44;13.20;;;8.20;;
67757;SDS011;54562;47.620;18.786;2023-11-22T15:38:51;15.00;;;8.30;;
67757;SDS011;54562;47.620;18.786;2023-11-22T15:41:57;17.50;;;9.50;;
67757;SDS011;54562;47.620;18.786;2023-11-22T15:45:04;15.20;;;9.50;;
67757;SDS011;54562;47.620;18.786;2023-11-22T15:48:12;14.90;;;8.60;;
67757;SDS011;54562;47.620;18.786;2023-11-22T15:51:19;17.70;;;10.30;;
67757;SDS011;54562;47.620;18.786;2023-11-22T15:54:25;17.20;;;9.70;;
67757;SDS011;54562;47.620;18.786;2023-11-22T15:57:31;18.40;;;9.60;;
67757;SDS011;54562;47.620;18.786;2023-11-22T16:00:38;22.40;;;13.30;;
67757;SDS011;54562;47.620;18.786;2023-11-22T16:03:45;22.20;;;12.50;;
67757;SDS011;54562;47.620;18.786;2023-11-22T16:06:52;19.80;;;10.80;;
67757;SDS011;54562;47.620;18.786;2023-11-22T16:09:58;22.40;;;12.00;;
67757;SDS011;54562;47.620;18.786;2023-11-22T16:13:04;21.60;;;12.40;;
67757;SDS011;54562;47.620;18.786;2023-11-22T16:16:11;19.20;;;9.70;;
67757;SDS011;54562;47.620;18.786;2023-11-22T16:19:17;23.20;;;13.40;;
67757;SDS011;54562;47.620;18.786;2023-11-22T16:22:24;24.60;;;12.80;;
67757;SDS011;54562;47.620;18.786;2023-11-22T16:25:30;23.90;;;12.50;;
67757;SDS011;54562;47.620;18.786;2023-11-22T16:28:37;21.70;;;12.60;;
67757;SDS011;54562;47.620;18.786;2023-11-22T16:31:44;26.30;;;13.00;;
67757;SDS011;54562;47.620;18.786;2023-11-22T16:34:51;25.00;;;13.40;;
67757;SDS011;54562;47.620;18.786;2023-11-22T16:37:58;22.60;;;12.80;;
67757;SDS011;54562;47.620;18.786;2023-11-22T16:41:06;25.50;;;13.10;;
67757;SDS011;54562;47.620;18.786;2023-11-22T16:44:15;24.10;;;13.30;;
67757;SDS011;54562;47.620;18.786;2023-11-22T16:47:22;25.20;;;12.70;;
67757;SDS011;54562;47.620;18.786;2023-11-22T16:50:29;22.90;;;12.50;;
67757;SDS011;54562;47.620;18.786;2023-11-22T16:53:35;24.90;;;13.10;;
67757;SDS011;54562;47.620;18.786;2023-11-22T16:56:44;21.20;;;12.10;;
67757;SDS011;54562;47.620;18.786;2023-11-22T16:59:51;26.00;;;13.50;;
67757;SDS011;54562;47.620;18.786;2023-11-22T17:02:57;23.20;;;12.30;;
67757;SDS011;54562;47.620;18.786;2023-11-22T17:06:04;23.80;;;12.70;;
67757;SDS011;54562;47.620;18.786;2023-11-22T17:09:11;23.30;;;13.10;;
67757;SDS011;54562;47.620;18.786;2023-11-22T17:12:19;23.30;;;12.70;;
67757;SDS011;54562;47.620;18.786;2023-11-22T17:15:26;22.90;;;12.00;;
67757;SDS011;54562;47.620;18.786;2023-11-22T17:18:33;23.40;;;12.50;;
67757;SDS011;54562;47.620;18.786;2023-11-22T17:21:40;23.20;;;12.60;;
67757;SDS011;54562;47.620;18.786;2023-11-22T17:24:46;23.10;;;12.60;;
67757;SDS011;54562;47.620;18.786;2023-11-22T17:27:53;23.40;;;12.70;;
67757;SDS011;54562;47.620;18.786;2023-11-22T17:31:01;20.10;;;11.80;;
67757;SDS011;54562;47.620;18.786;2023-11-22T17:34:08;21.90;;;12.50;;
67757;SDS011;54562;47.620;18.786;2023-11-22T17:37:15;21.70;;;11.40;;
67757;SDS011;54562;47.620;18.786;2023-11-22T17:40:21;23.40;;;12.50;;
67757;SDS011;54562;47.620;18.786;2023-11-22T17:43:29;22.10;;;11.90;;
67757;SDS011;54562;47.620;18.786;2023-11-22T17:46:35;20.30;;;11.60;;
67757;SDS011;54562;47.620;18.786;2023-11-22T17:49:44;24.60;;;13.10;;
67757;SDS011;54562;47.620;18.786;2023-11-22T17:52:52;21.30;;;11.50;;
67757;SDS011;54562;47.620;18.786;2023-11-22T17:55:58;21.10;;;11.50;;
67757;SDS011;54562;47.620;18.786;2023-11-22T17:59:05;20.50;;;11.90;;
67757;SDS011;54562;47.620;18.786;2023-11-22T18:02:12;22.90;;;12.10;;
67757;SDS011;54562;47.620;18.786;2023-11-22T18:05:19;22.30;;;11.80;;
67757;SDS011;54562;47.620;18.786;2023-11-22T18:08:28;23.90;;;13.30;;
67757;SDS011;54562;47.620;18.786;2023-11-22T18:11:34;22.40;;;12.10;;
67757;SDS011;54562;47.620;18.786;2023-11-22T18:14:41;22.20;;;11.80;;
67757;SDS011;54562;47.620;18.786;2023-11-22T18:17:48;21.90;;;12.10;;
67757;SDS011;54562;47.620;18.786;2023-11-22T18:20:55;22.50;;;12.10;;